M I D A S
Marine Information and Data Acquisition System
Tripno 2071 of the Zeeleeuw from 2011-04-04 06:47:19 to 2011-04-04 15:57:38
Back to CruiseResearch ActivitiesStationsMapUnderway DataData graphs

EquipmentUnitsComment
TimeDGPSUTC
LatitudeDGPSDM.mWGS84
LongitudeDGPSDM.mWGS84
HeadingGyrodeg 
SOGDGPSknotsSpeed over ground
COGDGPSdegCourse over ground
DepthEcho soundermeters200 kHz
Missing or incorrect values are displayed as -999
Navigation data collected by the RV Zeeleeuw from 2011-04-04 06:23:44 to 2011-04-04 16:08:32
Time Latitude Longitude Heading SOG COG Depth
2011-04-04 06:24:48 51°13.598 2°56.094 124.6 -999 237 -999
2011-04-04 06:25:48 51°13.597 2°56.094 124.6 -999 352 -999
2011-04-04 06:26:48 51°13.598 2°56.095 124.6 -999 354 -999
2011-04-04 06:27:48 51°13.598 2°56.094 125 -999 335 -999
2011-04-04 06:28:48 51°13.599 2°56.095 124.8 -999 67 -999
2011-04-04 06:29:49 51°13.599 2°56.095 124.9 -999 332 -999
2011-04-04 06:30:48 51°13.599 2°56.095 124.9 -999 141 -999
2011-04-04 06:31:48 51°13.599 2°56.096 125.1 -999 262 -999
2011-04-04 06:32:48 51°13.599 2°56.096 125.7 -999 240 -999
2011-04-04 06:33:48 51°13.599 2°56.096 125.2 -999 31 -999
2011-04-04 06:34:48 51°13.599 2°56.096 125.1 -999 45 6.6
2011-04-04 06:35:47 51°13.598 2°56.095 125 -999 357 6.5
2011-04-04 06:36:45 51°13.598 2°56.096 124.9 -999 121 6.6
2011-04-04 06:37:45 51°13.598 2°56.095 125.2 -999 281 6.5
2011-04-04 06:38:46 51°13.599 2°56.095 124.9 -999 2 6.5
2011-04-04 06:39:45 51°13.598 2°56.095 124.8 -999 247 6.5
2011-04-04 06:40:46 51°13.597 2°56.094 124.9 -999 32 6.5
2011-04-04 06:41:46 51°13.597 2°56.094 125.2 -999 302 6.5
2011-04-04 06:42:46 51°13.597 2°56.095 125.4 -999 125 6.5
2011-04-04 06:43:46 51°13.597 2°56.094 125 -999 92 6.5
2011-04-04 06:44:46 51°13.598 2°56.094 125 -999 275 6.5
2011-04-04 06:45:45 51°13.598 2°56.095 125 -999 295 6.5
2011-04-04 06:46:45 51°13.597 2°56.095 121.8 -999 189 -999
2011-04-04 06:47:47 51°13.597 2°56.092 111.9 0.5 286 6.5
2011-04-04 06:48:48 51°13.616 2°56.03 115.8 3.6 296 -999
2011-04-04 06:49:48 51°13.649 2°55.928 118.8 4.8 298 -999
2011-04-04 06:50:48 51°13.681 2°55.809 108 4.9 287 -999
2011-04-04 06:51:48 51°13.695 2°55.739 90.7 0.6 309 11.5
2011-04-04 06:52:46 51°13.714 2°55.759 27.2 1.1 26 10.8
2011-04-04 06:53:48 51°13.704 2°55.759 2.2 0.6 350 -999
2011-04-04 06:54:48 51°13.764 2°55.7 326.3 6.7 327 9.8
2011-04-04 06:55:47 51°13.875 2°55.601 335.2 8.3 334 -999
2011-04-04 06:56:44 51°13.997 2°55.512 337.7 8.6 336 9.7
2011-04-04 06:57:47 51°14.139 2°55.409 337 9.4 334 -999
2011-04-04 06:58:48 51°14.282 2°55.272 328.8 10.3 328 -999
2011-04-04 06:59:46 51°14.43 2°55.124 330.4 11.3 328 9.5
2011-04-04 07:00:44 51°14.58 2°54.949 324.5 12 318 10.4
2011-04-04 07:01:44 51°14.741 2°54.75 329.9 12.6 324 10.7
2011-04-04 07:02:44 51°14.914 2°54.551 329.5 12.9 325 10.5
2011-04-04 07:03:44 51°15.086 2°54.354 329 12.7 324 10.7
2011-04-04 07:04:44 51°15.256 2°54.151 328 12.8 321 11
2011-04-04 07:05:44 51°15.423 2°53.939 329 12.9 323 11.1
2011-04-04 07:06:44 51°15.594 2°53.731 330.3 12.9 325 10.5
2011-04-04 07:07:44 51°15.77 2°53.541 335.2 12.7 331 11.2
2011-04-04 07:08:44 51°15.955 2°53.381 337.7 12.7 331 10.4
2011-04-04 07:09:44 51°16.139 2°53.219 338.6 12.7 332 10.7
2011-04-04 07:10:44 51°16.326 2°53.061 339.9 12.6 334 10.8
2011-04-04 07:11:44 51°16.514 2°52.913 340.3 12.6 335 10.6
2011-04-04 07:12:44 51°16.703 2°52.773 338.3 12.5 334 9.4
2011-04-04 07:13:44 51°16.894 2°52.67 351.4 12 349 8.3
2011-04-04 07:14:44 51°17.092 2°52.614 359.5 12 358 8.5
2011-04-04 07:15:44 51°17.292 2°52.589 357.2 12.2 353 8.7
2011-04-04 07:16:44 51°17.494 2°52.565 1.7 12.1 357 9.1
2011-04-04 07:17:44 51°17.694 2°52.536 1.1 12.1 358 9.1
2011-04-04 07:18:44 51°17.886 2°52.605 22.3 11.7 21 9.4
2011-04-04 07:19:44 51°18.072 2°52.704 24.2 11.8 22 9.6
2011-04-04 07:20:44 51°18.243 2°52.856 29.7 11.8 27 9.8
2011-04-04 07:21:44 51°18.426 2°52.972 23.3 11.8 20 10.1
2011-04-04 07:22:44 51°18.61 2°53.079 22.5 11.7 20 10.3
2011-04-04 07:23:44 51°18.797 2°53.173 21.1 11.8 17 10.5
2011-04-04 07:24:44 51°18.985 2°53.263 21.1 11.7 17 10.7
2011-04-04 07:25:44 51°19.171 2°53.35 20 11.7 15 11.2
2011-04-04 07:26:44 51°19.358 2°53.436 21 11.7 16 11.6
2011-04-04 07:27:44 51°19.546 2°53.518 21.7 11.6 16 12.2
2011-04-04 07:28:44 51°19.732 2°53.601 22.2 11.6 18 12.9
2011-04-04 07:29:44 51°19.918 2°53.69 21.7 11.6 17 13.8
2011-04-04 07:30:44 51°20.104 2°53.781 21.9 11.8 16 14.2
2011-04-04 07:31:44 51°20.293 2°53.864 21.7 11.8 13 14.9
2011-04-04 07:32:44 51°20.481 2°53.946 21.9 11.7 16 15.1
2011-04-04 07:33:44 51°20.67 2°54.026 21.1 11.8 17 15.6
2011-04-04 07:34:44 51°20.859 2°54.112 22.4 11.8 17 15.9
2011-04-04 07:35:44 51°21.048 2°54.197 22.1 11.8 16 15.7
2011-04-04 07:36:44 51°21.24 2°54.276 20.7 11.9 15 16.1
2011-04-04 07:37:44 51°21.431 2°54.357 21.4 11.8 13 16.1
2011-04-04 07:38:44 51°21.622 2°54.437 22 11.9 15 16.4
2011-04-04 07:39:44 51°21.814 2°54.513 20 11.8 14 16.3
2011-04-04 07:40:44 51°22.005 2°54.594 22 11.8 15 17.5
2011-04-04 07:41:44 51°22.198 2°54.669 20.8 12 14 17.5
2011-04-04 07:42:44 51°22.391 2°54.75 21.3 12.1 14 17.8
2011-04-04 07:43:44 51°22.586 2°54.825 20.8 11.9 14 18.5
2011-04-04 07:44:44 51°22.779 2°54.9 21.9 11.9 14 19.1
2011-04-04 07:45:44 51°22.97 2°54.977 22.1 11.8 14 18.9
2011-04-04 07:46:44 51°23.16 2°55.055 22 11.7 14 18.6
2011-04-04 07:47:44 51°23.349 2°55.138 22.3 11.7 16 18
2011-04-04 07:48:44 51°23.538 2°55.223 20.6 11.8 16 18.7
2011-04-04 07:49:44 51°23.728 2°55.305 20.6 11.9 14 18.2
2011-04-04 07:50:44 51°23.917 2°55.388 22 11.9 14 20.4
2011-04-04 07:51:44 51°24.106 2°55.463 22.3 11.7 14 21
2011-04-04 07:52:44 51°24.297 2°55.543 21.5 11.9 15 22.3
2011-04-04 07:53:44 51°24.49 2°55.622 21 12 15 23.6
2011-04-04 07:54:44 51°24.685 2°55.702 20.7 12.1 13 22.4
2011-04-04 07:55:44 51°24.88 2°55.782 21.2 12 14 23.4
2011-04-04 07:56:44 51°25.073 2°55.861 21 12 15 21.9
2011-04-04 07:57:44 51°25.266 2°55.935 21.4 11.7 15 18.4
2011-04-04 07:58:44 51°25.454 2°56.016 20 11.6 14 16.1
2011-04-04 07:59:44 51°25.641 2°56.1 20.8 11.6 16 16.1
2011-04-04 08:00:44 51°25.829 2°56.186 21 11.8 15 16.6
2011-04-04 08:01:44 51°26.015 2°56.271 21.5 11.7 17 16.6
2011-04-04 08:02:44 51°26.2 2°56.358 22.1 11.6 17 16.6
2011-04-04 08:03:44 51°26.387 2°56.44 21.2 11.6 17 17.5
2011-04-04 08:04:44 51°26.575 2°56.52 20.8 11.6 15 19.3
2011-04-04 08:05:44 51°26.762 2°56.597 21 11.5 16 21.1
2011-04-04 08:06:44 51°26.947 2°56.679 22.1 11.4 17 20.8
2011-04-04 08:07:44 51°27.133 2°56.752 20.2 11.6 11 17.7
2011-04-04 08:08:44 51°27.317 2°56.832 22.1 11.5 15 20.7
2011-04-04 08:09:44 51°27.504 2°56.913 22.1 11.7 15 25.7
2011-04-04 08:10:44 51°27.693 2°56.993 21.2 11.9 13 27.4
2011-04-04 08:11:44 51°27.885 2°57.072 20.4 12 14 28.6
2011-04-04 08:12:44 51°28.075 2°57.151 21.8 11.8 16 27.6
2011-04-04 08:13:44 51°28.262 2°57.227 20.8 11.4 13 27.3
2011-04-04 08:14:44 51°28.449 2°57.298 20.6 11.7 13 27.8
2011-04-04 08:15:44 51°28.635 2°57.369 20.9 11.5 13 28.2
2011-04-04 08:16:44 51°28.822 2°57.446 21.9 11.6 14 27.3
2011-04-04 08:17:44 51°29.01 2°57.52 21.1 11.5 14 23.9
2011-04-04 08:18:44 51°29.198 2°57.596 21.6 11.6 14 24
2011-04-04 08:19:44 51°29.384 2°57.675 21.4 11.4 16 23.9
2011-04-04 08:20:44 51°29.569 2°57.752 21.2 11.5 14 23.7
2011-04-04 08:21:44 51°29.756 2°57.824 22.1 11.5 15 25.2
2011-04-04 08:22:44 51°29.943 2°57.898 21.1 11.6 14 26.2
2011-04-04 08:23:44 51°30.13 2°57.975 20.9 11.6 14 27.6
2011-04-04 08:24:44 51°30.319 2°58.053 21.8 11.7 14 27.8
2011-04-04 08:25:44 51°30.508 2°58.136 22.2 11.8 15 28.1
2011-04-04 08:26:44 51°30.697 2°58.223 21.9 11.8 16 27.7
2011-04-04 08:27:44 51°30.887 2°58.31 21 11.8 15 28
2011-04-04 08:28:44 51°31.075 2°58.394 21.5 11.8 17 29.2
2011-04-04 08:29:44 51°31.262 2°58.474 22.1 11.4 15 28.8
2011-04-04 08:30:44 51°31.447 2°58.549 20.4 11.3 14 29.6
2011-04-04 08:31:44 51°31.629 2°58.63 22.2 11.5 16 29.7
2011-04-04 08:32:44 51°31.814 2°58.715 21.9 11.6 17 31
2011-04-04 08:33:44 51°31.998 2°58.798 20.9 11.5 15 35.4
2011-04-04 08:34:44 51°32.183 2°58.88 21.9 11.5 17 34.6
2011-04-04 08:35:44 51°32.369 2°58.957 20.8 11.4 15 33.2
2011-04-04 08:36:44 51°32.554 2°59.03 20.5 11.4 14 32.6
2011-04-04 08:37:44 51°32.739 2°59.128 21.1 11.6 17 25
2011-04-04 08:38:44 51°32.925 2°59.202 10.5 11.6 6 15.7
2011-04-04 08:39:44 51°33.115 2°59.249 12.2 11.6 9 13.5
2011-04-04 08:40:44 51°33.305 2°59.292 10.8 11.5 7 14.3
2011-04-04 08:41:44 51°33.494 2°59.337 12.6 11.5 8 15.4
2011-04-04 08:42:44 51°33.683 2°59.381 12.9 11.5 8 17.9
2011-04-04 08:43:44 51°33.87 2°59.427 14.6 11.5 9 18.9
2011-04-04 08:44:44 51°34.057 2°59.47 12.3 11.5 7 21.1
2011-04-04 08:45:44 51°34.245 2°59.508 14 11.5 7 22
2011-04-04 08:46:44 51°34.434 2°59.552 13.2 11.5 8 23.1
2011-04-04 08:47:44 51°34.618 2°59.605 26.9 10.9 27 23.7
2011-04-04 08:48:44 51°34.762 2°59.789 37.1 11 32 25.9
2011-04-04 08:49:44 51°34.933 2°59.909 27.1 11.4 24 26.6
2011-04-04 08:50:44 51°35.06 3°0.013 36.4 5.1 35 27.2
2011-04-04 08:51:44 51°35.087 3°0.066 44.7 0.6 58 26.4
2011-04-04 08:52:44 51°35.079 3°0.056 4.1 1 220 26.6
2011-04-04 08:53:44 51°35.065 3°0.038 350 1.1 222 26
2011-04-04 08:54:44 51°35.049 3°0.018 341.7 1.2 214 28.2
2011-04-04 08:55:44 51°35.032 3°0.001 337.4 1.2 213 28.4
2011-04-04 08:56:44 51°35.015 2°59.984 335.4 1.2 210 27.6
2011-04-04 08:57:44 51°34.995 2°59.969 340.5 1.3 203 27.7
2011-04-04 08:58:44 51°34.976 2°59.957 348.1 1.3 199 27.5
2011-04-04 08:59:44 51°34.956 2°59.946 355.5 1.3 200 27.4
2011-04-04 09:00:44 51°34.936 2°59.935 359.6 1.3 201 27.2
2011-04-04 09:01:44 51°34.916 2°59.923 358.6 1.2 197 26.9
2011-04-04 09:02:44 51°34.896 2°59.912 357.7 1.2 206 27.7
2011-04-04 09:03:44 51°34.878 2°59.9 357.1 1.2 204 27.8
2011-04-04 09:04:44 51°34.86 2°59.889 357.7 1.2 205 27.3
2011-04-04 09:05:44 51°34.843 2°59.878 -999 1.2 206 26.7
2011-04-04 09:06:44 51°34.826 2°59.864 357 1.2 207 25.2
2011-04-04 09:07:44 51°34.808 2°59.849 354.4 1.2 209 23.3
2011-04-04 09:08:44 51°34.791 2°59.835 349.6 1.1 203 26
2011-04-04 09:09:44 51°34.774 2°59.822 345.1 1.1 208 26.4
2011-04-04 09:10:44 51°34.758 2°59.809 339.2 1.1 208 26.7
2011-04-04 09:11:44 51°34.74 2°59.796 338.4 1.2 202 26.2
2011-04-04 09:12:44 51°34.721 2°59.783 337.2 1.2 204 25
2011-04-04 09:13:44 51°34.702 2°59.771 340.3 1.3 202 24.5
2011-04-04 09:14:44 51°34.682 2°59.758 344.1 1.2 201 23.7
2011-04-04 09:15:44 51°34.664 2°59.748 346.6 1.2 201 26.2
2011-04-04 09:16:44 51°34.646 2°59.738 350.3 1.1 197 26.3
2011-04-04 09:17:44 51°34.628 2°59.73 352.1 1.1 198 26.1
2011-04-04 09:18:44 51°34.611 2°59.721 353.6 1.2 199 26
2011-04-04 09:19:44 51°34.592 2°59.711 352.8 1.2 198 25.3
2011-04-04 09:20:44 51°34.573 2°59.702 355.5 1.2 197 23.8
2011-04-04 09:21:44 51°34.553 2°59.691 351.6 1.3 200 22.9
2011-04-04 09:22:44 51°34.533 2°59.681 345.5 1.2 198 25.3
2011-04-04 09:23:44 51°34.513 2°59.672 341.6 1.2 198 24.1
2011-04-04 09:24:44 51°34.494 2°59.662 341.1 1.3 197 23.2
2011-04-04 09:25:44 51°34.473 2°59.651 345 1.3 196 21.6
2011-04-04 09:26:44 51°34.452 2°59.643 344.7 1.2 193 24.3
2011-04-04 09:27:44 51°34.433 2°59.635 344.3 1.1 195 24.7
2011-04-04 09:28:44 51°34.415 2°59.627 343.3 1.2 195 24.1
2011-04-04 09:29:44 51°34.395 2°59.619 342.3 1.2 193 22.2
2011-04-04 09:30:44 51°34.376 2°59.611 342.8 1.2 193 21.6
2011-04-04 09:31:44 51°34.368 2°59.598 342.1 0.7 238 22.3
2011-04-04 09:32:44 51°34.363 2°59.58 335.9 1 280 23.3
2011-04-04 09:33:44 51°34.385 2°59.533 333.9 3.2 316 23.5
2011-04-04 09:34:44 51°34.427 2°59.496 359.5 2.7 348 24.6
2011-04-04 09:35:44 51°34.471 2°59.507 24.6 2.9 21 22.4
2011-04-04 09:36:44 51°34.516 2°59.536 25.8 3 24 21.3
2011-04-04 09:37:44 51°34.558 2°59.575 33.1 2.9 37 24.4
2011-04-04 09:38:44 51°34.595 2°59.613 28.7 2.5 29 24.2
2011-04-04 09:39:44 51°34.631 2°59.643 27.5 2.4 27 25.5
2011-04-04 09:40:44 51°34.665 2°59.675 30.2 2.3 31 26.7
2011-04-04 09:41:44 51°34.697 2°59.713 34.2 2.5 37 24.8
2011-04-04 09:42:44 51°34.732 2°59.745 24.5 2.4 23 24.7
2011-04-04 09:43:44 51°34.768 2°59.766 21.9 2.3 16 26.6
2011-04-04 09:44:44 51°34.806 2°59.783 20.3 2.4 16 27.2
2011-04-04 09:45:44 51°34.844 2°59.803 28.2 2.3 26 25.9
2011-04-04 09:46:44 51°34.878 2°59.837 34.9 2.5 36 27.2
2011-04-04 09:47:44 51°34.91 2°59.88 37.1 2.5 40 27.4
2011-04-04 09:48:44 51°34.942 2°59.925 36.9 2.6 41 27.8
2011-04-04 09:49:44 51°34.976 2°59.968 35.3 2.6 38 27.5
2011-04-04 09:50:44 51°35.009 3°0.01 34.7 2.5 37 28.5
2011-04-04 09:51:44 51°35.043 3°0.052 35.1 2.5 37 27.3
2011-04-04 09:52:44 51°35.078 3°0.093 34.2 2.5 35 26.8
2011-04-04 09:53:44 51°35.112 3°0.131 33.4 2.5 35 26.2
2011-04-04 09:54:44 51°35.14 3°0.182 50.6 2.6 62 28.2
2011-04-04 09:55:44 51°35.155 3°0.249 58.5 2.8 73 26.6
2011-04-04 09:56:44 51°35.161 3°0.324 73.1 2.9 92 27.7
2011-04-04 09:57:44 51°35.146 3°0.406 94.8 3.5 116 27.7
2011-04-04 09:58:44 51°35.109 3°0.491 111.2 4.1 132 25.7
2011-04-04 09:59:44 51°35.057 3°0.568 122 4 142 23.5
2011-04-04 10:00:44 51°35.013 3°0.624 107.5 2.7 134 21.7
2011-04-04 10:01:44 51°34.991 3°0.683 86.7 3.7 109 21.7
2011-04-04 10:02:44 51°34.917 3°0.88 124.1 12.3 132 21.6
2011-04-04 10:03:44 51°34.755 3°1.125 138 13.8 147 17.9
2011-04-04 10:04:44 51°34.531 3°1.249 163 14.4 166 17.1
2011-04-04 10:05:44 51°34.299 3°1.343 162.7 14.4 166 16.9
2011-04-04 10:06:44 51°34.064 3°1.436 162.8 14.5 166 19
2011-04-04 10:07:44 51°33.829 3°1.507 172.8 14.4 176 33
2011-04-04 10:08:44 51°33.594 3°1.552 169.2 14.1 171 35.5
2011-04-04 10:09:44 51°33.361 3°1.602 169.6 14 172 34.6
2011-04-04 10:10:44 51°33.129 3°1.65 169.6 14 172 29.8
2011-04-04 10:11:44 51°32.897 3°1.699 169.6 14 172 25.7
2011-04-04 10:12:44 51°32.666 3°1.754 169.4 14.1 172 24.6
2011-04-04 10:13:44 51°32.436 3°1.804 171 14 173 23.4
2011-04-04 10:14:44 51°32.206 3°1.858 169.7 13.9 172 25.4
2011-04-04 10:15:44 51°31.978 3°1.914 168.8 13.9 173 26.6
2011-04-04 10:16:44 51°31.75 3°1.962 169.7 13.6 173 27.6
2011-04-04 10:17:44 51°31.534 3°2.06 158.3 13.5 162 27.9
2011-04-04 10:18:44 51°31.319 3°2.162 158.2 13.5 164 28.4
2011-04-04 10:19:44 51°31.103 3°2.261 159 13.5 165 28.4
2011-04-04 10:20:44 51°30.886 3°2.36 158.8 13.6 163 28.9
2011-04-04 10:21:44 51°30.669 3°2.461 157.4 13.5 159 28.8
2011-04-04 10:22:44 51°30.466 3°2.617 148.2 13.7 156 28.4
2011-04-04 10:23:44 51°30.264 3°2.774 147.5 13.6 154 26.2
2011-04-04 10:24:44 51°30.061 3°2.932 149 13.5 155 27.1
2011-04-04 10:25:44 51°29.857 3°3.087 149.5 13.5 155 26.2
2011-04-04 10:26:44 51°29.654 3°3.248 150.1 13.7 154 23.6
2011-04-04 10:27:44 51°29.449 3°3.414 149.2 13.8 156 23.4
2011-04-04 10:28:44 51°29.244 3°3.58 149.2 13.6 153 23.9
2011-04-04 10:29:44 51°29.041 3°3.747 149.5 13.6 151 24.2
2011-04-04 10:30:44 51°28.84 3°3.915 149.4 13.7 153 24.2
2011-04-04 10:31:44 51°28.638 3°4.074 150 13.4 154 23.2
2011-04-04 10:32:44 51°28.437 3°4.239 149.4 13.8 156 21.7
2011-04-04 10:33:44 51°28.22 3°4.212 210.4 13.5 213 20.4
2011-04-04 10:34:44 51°28.144 3°3.913 286.7 12.3 284 20.4
2011-04-04 10:35:44 51°28.183 3°3.716 297.8 5 290 21.5
2011-04-04 10:36:44 51°28.209 3°3.636 314.3 2.5 302 22
2011-04-04 10:37:44 51°28.226 3°3.58 301.5 2.1 287 22.7
2011-04-04 10:38:44 51°28.23 3°3.539 300.6 1.2 276 22.3
2011-04-04 10:39:44 51°28.23 3°3.516 304.1 0.7 261 22.5
2011-04-04 10:40:44 51°28.228 3°3.502 304.4 0.5 245 22.6
2011-04-04 10:41:44 51°28.224 3°3.495 309.3 0.3 214 22.6
2011-04-04 10:42:44 51°28.219 3°3.494 319.3 0.3 172 22.7
2011-04-04 10:43:44 51°28.212 3°3.497 331.3 0.4 162 22.7
2011-04-04 10:44:44 51°28.203 3°3.502 344.7 0.6 158 22.4
2011-04-04 10:45:44 51°28.202 3°3.507 351.3 1.5 351 22.6
2011-04-04 10:46:44 51°28.255 3°3.472 336.3 4.2 331 22.9
2011-04-04 10:47:44 51°28.294 3°3.425 329.2 2.2 321 23.3
2011-04-04 10:48:44 51°28.313 3°3.394 325.8 1.3 310 23.5
2011-04-04 10:49:44 51°28.324 3°3.372 321.6 0.8 300 23.9
2011-04-04 10:50:44 51°28.328 3°3.357 318.5 0.5 284 23.6
2011-04-04 10:51:44 51°28.327 3°3.35 317 0.2 220 23.8
2011-04-04 10:52:44 51°28.324 3°3.349 318.2 0.2 158 23.6
2011-04-04 10:53:44 51°28.32 3°3.354 323.8 0.4 139 23.9
2011-04-04 10:54:44 51°28.314 3°3.361 332.5 0.5 144 23.8
2011-04-04 10:55:44 51°28.307 3°3.371 342.4 0.7 138 23.9
2011-04-04 10:56:44 51°28.297 3°3.383 351.7 0.8 146 23.7
2011-04-04 10:57:44 51°28.286 3°3.394 357.9 0.9 147 23.3
2011-04-04 10:58:44 51°28.273 3°3.406 4.3 0.9 147 23.6
2011-04-04 10:59:44 51°28.262 3°3.417 4.6 0.9 146 23.3
2011-04-04 11:00:44 51°28.25 3°3.43 6.7 0.8 146 23.2
2011-04-04 11:01:44 51°28.239 3°3.444 5.2 0.8 142 23.2
2011-04-04 11:02:44 51°28.229 3°3.457 0.2 0.8 137 23.4
2011-04-04 11:03:44 51°28.22 3°3.471 355.7 0.8 132 23.1
2011-04-04 11:04:44 51°28.211 3°3.485 351.6 0.7 133 23
2011-04-04 11:05:44 51°28.203 3°3.501 352.4 0.7 132 22.8
2011-04-04 11:06:44 51°28.194 3°3.517 352.1 0.8 127 22.8
2011-04-04 11:07:44 51°28.186 3°3.535 352 0.9 124 22.8
2011-04-04 11:08:44 51°28.178 3°3.552 352.2 0.8 129 22.7
2011-04-04 11:09:44 51°28.174 3°3.57 353.6 0.8 38 22.5
2011-04-04 11:10:44 51°28.205 3°3.561 333.6 2.7 336 22.8
2011-04-04 11:11:44 51°28.249 3°3.512 318.1 3.5 318 23.4
2011-04-04 11:12:44 51°28.278 3°3.465 312.9 1.8 315 23.8
2011-04-04 11:13:44 51°28.293 3°3.442 311.3 0.9 317 23.9
2011-04-04 11:14:44 51°28.302 3°3.432 310.7 0.4 330 23.8
2011-04-04 11:15:44 51°28.307 3°3.432 310.2 0.3 38 23.9
2011-04-04 11:16:44 51°28.309 3°3.44 314.9 0.4 79 23.9
2011-04-04 11:17:44 51°28.31 3°3.452 320.9 0.6 87 24.1
2011-04-04 11:18:44 51°28.309 3°3.471 333.7 0.7 97 24
2011-04-04 11:19:44 51°28.308 3°3.492 344.1 0.8 99 24
2011-04-04 11:20:44 51°28.305 3°3.513 350.5 0.8 101 23.7
2011-04-04 11:21:44 51°28.301 3°3.536 356.2 0.9 106 24
2011-04-04 11:22:44 51°28.297 3°3.559 359.8 0.9 103 24
2011-04-04 11:23:44 51°28.294 3°3.582 359.7 0.9 99 23.8
2011-04-04 11:24:44 51°28.291 3°3.607 355.9 0.9 99 23.6
2011-04-04 11:25:44 51°28.29 3°3.631 352.5 0.9 97 23.6
2011-04-04 11:26:44 51°28.287 3°3.656 351.1 0.9 97 23.6
2011-04-04 11:27:44 51°28.286 3°3.682 349.4 1 96 23.4
2011-04-04 11:28:44 51°28.284 3°3.709 349 1 95 23.3
2011-04-04 11:29:44 51°28.284 3°3.737 347.2 1.1 91 23.1
2011-04-04 11:30:44 51°28.283 3°3.766 345.5 1.1 90 23.2
2011-04-04 11:31:44 51°28.283 3°3.796 344.1 1.1 89 23
2011-04-04 11:32:44 51°28.284 3°3.825 341.2 1.1 87 23
2011-04-04 11:33:44 51°28.286 3°3.855 338.5 1.2 87 23
2011-04-04 11:34:44 51°28.287 3°3.886 338.6 1.3 88 23.1
2011-04-04 11:35:44 51°28.287 3°3.92 341.6 1.3 90 22.8
2011-04-04 11:36:44 51°28.287 3°3.954 345.1 1.3 92 22.8
2011-04-04 11:37:44 51°28.287 3°3.988 347.9 1.3 90 22.9
2011-04-04 11:38:44 51°28.287 3°4.024 350.9 1.4 88 22.6
2011-04-04 11:39:44 51°28.287 3°4.06 351.7 1.3 88 22.6
2011-04-04 11:40:44 51°28.288 3°4.096 350.1 1.4 88 22.4
2011-04-04 11:41:44 51°28.288 3°4.135 350.8 1.4 87 22.2
2011-04-04 11:42:44 51°28.289 3°4.173 349.4 1.4 87 22.2
2011-04-04 11:43:44 51°28.29 3°4.211 349.1 1.4 88 22.1
2011-04-04 11:44:44 51°28.292 3°4.25 349.9 1.5 86 21.9
2011-04-04 11:45:44 51°28.293 3°4.289 349.5 1.5 87 21.9
2011-04-04 11:46:44 51°28.295 3°4.329 347.8 1.5 85 21.8
2011-04-04 11:47:44 51°28.297 3°4.368 345.1 1.6 84 21.6
2011-04-04 11:48:44 51°28.301 3°4.409 343.5 1.5 82 21.6
2011-04-04 11:49:44 51°28.304 3°4.449 339.8 1.5 83 21.9
2011-04-04 11:50:44 51°28.308 3°4.49 337.3 1.6 82 21.8
2011-04-04 11:51:44 51°28.312 3°4.533 337.6 1.6 84 21.4
2011-04-04 11:52:44 51°28.315 3°4.576 339 1.7 82 20.8
2011-04-04 11:53:44 51°28.319 3°4.619 340.3 1.6 83 21.1
2011-04-04 11:54:44 51°28.323 3°4.664 340.5 1.7 82 21.1
2011-04-04 11:55:44 51°28.326 3°4.71 342.7 1.8 83 20.8
2011-04-04 11:56:44 51°28.33 3°4.756 343.1 1.8 84 20.5
2011-04-04 11:57:44 51°28.334 3°4.803 342.4 1.8 81 20.5
2011-04-04 11:58:44 51°28.339 3°4.851 343.5 1.8 81 20.1
2011-04-04 11:59:44 51°28.343 3°4.899 345.9 1.8 79 20
2011-04-04 12:00:44 51°28.348 3°4.948 347.4 1.9 82 19.9
2011-04-04 12:01:44 51°28.353 3°4.997 344.9 2 81 19.7
2011-04-04 12:02:44 51°28.358 3°5.049 345.5 2 81 19.2
2011-04-04 12:03:44 51°28.362 3°5.101 345.4 2 82 19.2
2011-04-04 12:04:44 51°28.367 3°5.153 346.2 2 82 19.2
2011-04-04 12:05:44 51°28.371 3°5.205 346.8 2 82 18.9
2011-04-04 12:06:44 51°28.376 3°5.258 347.4 2 82 18.8
2011-04-04 12:07:44 51°28.381 3°5.312 348 2.1 81 18.8
2011-04-04 12:08:44 51°28.386 3°5.365 347.5 2 81 18.3
2011-04-04 12:09:44 51°28.392 3°5.418 345.7 2.1 80 18.3
2011-04-04 12:10:44 51°28.397 3°5.472 345.4 2 81 18.6
2011-04-04 12:11:44 51°28.413 3°5.514 324.2 1.9 12 18.5
2011-04-04 12:12:44 51°28.428 3°5.421 260.7 7.9 257 19.3
2011-04-04 12:13:44 51°28.392 3°5.147 260.9 11.3 262 19.2
2011-04-04 12:14:44 51°28.373 3°4.844 263.6 11.4 264 20.6
2011-04-04 12:15:44 51°28.355 3°4.541 263.7 11.4 265 22.2
2011-04-04 12:16:44 51°28.333 3°4.24 258.9 11.4 259 22.9
2011-04-04 12:17:44 51°28.299 3°3.941 258.9 11.4 260 23.5
2011-04-04 12:18:44 51°28.268 3°3.678 254.8 6.6 255 24.2
2011-04-04 12:19:44 51°28.242 3°3.588 252.2 1.9 257 24.6
2011-04-04 12:20:44 51°28.251 3°3.607 296.8 2 69 24.8
2011-04-04 12:21:48 51°28.265 3°3.659 323 2 66 -999
2011-04-04 12:22:46 51°28.279 3°3.708 328.2 2.2 64 24.2
2011-04-04 12:23:44 51°28.294 3°3.759 334.1 2.2 62 24.5
2011-04-04 12:24:44 51°28.343 3°3.802 358.6 4 23 24.5
2011-04-04 12:25:44 51°28.416 3°3.83 352.4 5.2 12 25
2011-04-04 12:26:44 51°28.494 3°3.892 24.9 5.3 37 25.3
2011-04-04 12:27:44 51°28.554 3°3.982 35.9 4.6 46 25.4
2011-04-04 12:28:44 51°28.603 3°4.064 31.7 3.9 47 25.5
2011-04-04 12:29:44 51°28.645 3°4.134 23.9 3.4 45 25.6
2011-04-04 12:30:44 51°28.682 3°4.196 18.4 3.1 47 25.3
2011-04-04 12:31:44 51°28.717 3°4.254 14.8 2.9 47 25.7
2011-04-04 12:32:44 51°28.749 3°4.31 12.1 2.8 47 25.4
2011-04-04 12:33:44 51°28.781 3°4.365 11.4 2.8 47 25.6
2011-04-04 12:34:44 51°28.815 3°4.421 14.3 3 45 25.7
2011-04-04 12:35:44 51°28.85 3°4.479 17.5 3.1 45 25.4
2011-04-04 12:36:44 51°28.886 3°4.54 22.1 3.2 47 25.6
2011-04-04 12:37:44 51°28.923 3°4.605 31.6 3.4 51 25.9
2011-04-04 12:38:44 51°28.957 3°4.677 43.4 3.4 54 25.5
2011-04-04 12:39:44 51°28.991 3°4.749 37.8 3.4 53 25.7
2011-04-04 12:40:44 51°29.026 3°4.819 31.5 3.4 50 26
2011-04-04 12:41:44 51°29.063 3°4.886 26.2 3.4 48 25.9
2011-04-04 12:42:44 51°29.1 3°4.952 23.5 3.3 48 25.9
2011-04-04 12:43:44 51°29.138 3°5.015 22 3.3 47 26.1
2011-04-04 12:44:44 51°29.176 3°5.079 24.6 3.3 47 25.9
2011-04-04 12:45:44 51°29.214 3°5.148 41.7 3.7 53 25.9
2011-04-04 12:46:44 51°29.247 3°5.247 73.3 4.8 69 25.8
2011-04-04 12:47:44 51°29.268 3°5.377 91.5 5.2 80 25.6
2011-04-04 12:48:44 51°29.274 3°5.515 107.5 5.2 92 25.1
2011-04-04 12:49:44 51°29.263 3°5.649 123.6 5 103 24.6
2011-04-04 12:50:44 51°29.239 3°5.77 138.7 4.6 113 23.9
2011-04-04 12:51:44 51°29.211 3°5.868 152.6 3.4 112 23.6
2011-04-04 12:52:44 51°29.195 3°5.937 164.1 2.4 107 23.1
2011-04-04 12:53:44 51°29.187 3°5.997 167 2.3 105 22.7
2011-04-04 12:54:44 51°29.145 3°6.063 170.7 7.1 154 21.9
2011-04-04 12:55:44 51°28.99 3°6.188 163.2 12.2 154 20.3
2011-04-04 12:56:44 51°28.811 3°6.374 153.5 12.9 146 20.2
2011-04-04 12:57:44 51°28.633 3°6.57 154.1 12.9 146 19.2
2011-04-04 12:58:44 51°28.454 3°6.762 154.5 13 147 18.6
2011-04-04 12:59:44 51°28.274 3°6.955 154.3 12.9 148 18.3
2011-04-04 13:00:44 51°28.095 3°7.143 154.2 12.9 146 18
2011-04-04 13:01:44 51°27.918 3°7.33 154.2 12.8 147 17.2
2011-04-04 13:02:44 51°27.738 3°7.515 154 12.8 147 16.2
2011-04-04 13:03:44 51°27.56 3°7.701 154.2 12.9 146 15.1
2011-04-04 13:04:44 51°27.372 3°7.844 171.5 12.2 166 14.2
2011-04-04 13:05:44 51°27.174 3°7.88 181.4 12 175 14.3
2011-04-04 13:06:44 51°26.975 3°7.912 180.5 12 173 14.1
2011-04-04 13:07:44 51°26.776 3°7.947 179.9 11.9 173 13.9
2011-04-04 13:08:44 51°26.579 3°7.985 179.8 11.9 174 12.8
2011-04-04 13:09:44 51°26.415 3°8.014 192.7 6.2 182 12.7
2011-04-04 13:10:44 51°26.363 3°7.99 226.9 1.4 206 12.6
2011-04-04 13:11:44 51°26.367 3°8.007 258.5 1.2 58 12.9
2011-04-04 13:12:44 51°26.382 3°8.041 281.5 1.8 57 -999
2011-04-04 13:13:44 51°26.399 3°8.085 300.6 2 60 5.1
2011-04-04 13:14:44 51°26.415 3°8.131 317.4 2 61 13.1
2011-04-04 13:15:44 51°26.431 3°8.176 334.8 1.9 61 13
2011-04-04 13:16:44 51°26.447 3°8.221 348.6 2 62 13.4
2011-04-04 13:17:44 51°26.463 3°8.266 4 2 60 13
2011-04-04 13:18:44 51°26.48 3°8.31 11.7 1.9 57 13.2
2011-04-04 13:19:44 51°26.498 3°8.355 11.3 1.9 58 13.1
2011-04-04 13:20:44 51°26.516 3°8.399 7.2 2 56 13.3
2011-04-04 13:21:44 51°26.536 3°8.442 1.1 2 53 13
2011-04-04 13:22:44 51°26.555 3°8.484 355.6 2 54 12.6
2011-04-04 13:23:44 51°26.574 3°8.526 353 2 55 12.8
2011-04-04 13:24:44 51°26.594 3°8.57 350.6 2.1 57 12.3
2011-04-04 13:25:44 51°26.621 3°8.607 341.5 2.8 15 12.7
2011-04-04 13:26:44 51°26.662 3°8.582 279.5 2.6 302 13.2
2011-04-04 13:27:44 51°26.632 3°8.527 208.4 5.6 200 12.4
2011-04-04 13:28:44 51°26.506 3°8.486 196.4 8.6 191 12.6
2011-04-04 13:29:44 51°26.389 3°8.377 235 8.3 239 13.1
2011-04-04 13:30:44 51°26.373 3°8.205 276.4 4.3 293 13
2011-04-04 13:31:44 51°26.412 3°8.166 320.8 2.1 20 12.9
2011-04-04 13:32:46 51°26.43 3°8.205 3.2 1.9 54 -999
2011-04-04 13:33:47 51°26.45 3°8.247 13.5 2 52 13.2
2011-04-04 13:34:44 51°26.47 3°8.286 11.4 2.1 51 13.1
2011-04-04 13:35:44 51°26.492 3°8.327 1.3 2 49 13
2011-04-04 13:36:44 51°26.514 3°8.366 351.8 2 51 13
2011-04-04 13:37:44 51°26.535 3°8.407 348.5 2 50 12.7
2011-04-04 13:38:44 51°26.555 3°8.448 350.6 1.9 51 12.6
2011-04-04 13:39:44 51°26.575 3°8.49 351.7 2 50 12.5
2011-04-04 13:40:44 51°26.596 3°8.533 352.3 2 53 12.8
2011-04-04 13:41:44 51°26.617 3°8.576 354.6 2.1 52 12.8
2011-04-04 13:42:44 51°26.639 3°8.618 354 2 52 13.1
2011-04-04 13:43:44 51°26.661 3°8.661 354 2.1 52 13.2
2011-04-04 13:44:44 51°26.682 3°8.703 354.3 2.1 51 13.4
2011-04-04 13:45:44 51°26.705 3°8.746 352.1 2.2 45 13.6
2011-04-04 13:46:44 51°26.742 3°8.774 328.6 3.1 -999 14
2011-04-04 13:47:44 51°26.786 3°8.734 281 2.8 313 14.4
2011-04-04 13:48:44 51°26.813 3°8.705 279.1 1.6 337 14.4
2011-04-04 13:49:44 51°26.838 3°8.7 279.8 1.5 6 14.4
2011-04-04 13:50:44 51°26.864 3°8.713 289 1.8 26 14.6
2011-04-04 13:51:44 51°26.89 3°8.743 305.6 1.9 41 14.7
2011-04-04 13:52:44 51°26.914 3°8.782 328.2 1.9 47 14.5
2011-04-04 13:53:44 51°26.937 3°8.825 348.9 2 51 14.7
2011-04-04 13:54:44 51°26.958 3°8.867 359.1 2 53 14.6
2011-04-04 13:55:44 51°26.977 3°8.909 4 1.9 53 14.4
2011-04-04 13:56:44 51°26.997 3°8.949 3.2 2 51 14.4
2011-04-04 13:57:44 51°27.019 3°8.99 1.1 2 48 14.4
2011-04-04 13:58:44 51°27.042 3°9.026 354.2 1.9 46 14.4
2011-04-04 13:59:44 51°27.065 3°9.064 351.3 2 47 14.2
2011-04-04 14:00:44 51°27.087 3°9.102 352.1 2 45 14
2011-04-04 14:01:44 51°27.11 3°9.139 349.3 2 47 14
2011-04-04 14:02:44 51°27.133 3°9.18 351 2 49 13.8
2011-04-04 14:03:44 51°27.154 3°9.219 354.3 2 49 13.9
2011-04-04 14:04:44 51°27.218 3°9.27 30.5 5.6 37 13.8
2011-04-04 14:05:44 51°27.251 3°9.395 110.6 4.8 97 13.8
2011-04-04 14:06:44 51°27.214 3°9.468 180.8 2.9 162 13.7
2011-04-04 14:07:44 51°27.176 3°9.455 215.5 2.6 208 13.7
2011-04-04 14:08:44 51°27.137 3°9.415 219.3 2.8 212 13.6
2011-04-04 14:09:44 51°27.097 3°9.374 219.5 2.9 215 13.5
2011-04-04 14:10:44 51°27.058 3°9.333 219.3 2.8 208 13.6
2011-04-04 14:11:44 51°27.02 3°9.295 221.2 2.7 216 13.5
2011-04-04 14:12:44 51°26.983 3°9.254 220 2.7 215 13.4
2011-04-04 14:13:44 51°26.948 3°9.21 222.3 2.6 222 13.5
2011-04-04 14:14:44 51°26.914 3°9.165 221.5 2.7 220 13.3
2011-04-04 14:15:44 51°26.879 3°9.12 221.2 2.8 220 13.7
2011-04-04 14:16:44 51°26.843 3°9.076 221.6 2.7 219 13.6
2011-04-04 14:17:44 51°26.808 3°9.024 225.1 2.9 223 13.8
2011-04-04 14:18:44 51°26.775 3°8.967 225.8 3 227 13.7
2011-04-04 14:19:44 51°26.741 3°8.909 224.7 3 227 13.6
2011-04-04 14:20:44 51°26.707 3°8.852 223.8 3 225 13.2
2011-04-04 14:21:44 51°26.673 3°8.796 224.1 2.9 226 12.8
2011-04-04 14:22:44 51°26.637 3°8.742 225.9 3 227 12.8
2011-04-04 14:23:44 51°26.604 3°8.683 225.4 3 229 12.2
2011-04-04 14:24:44 51°26.571 3°8.625 223.7 2.9 224 12.7
2011-04-04 14:25:44 51°26.546 3°8.561 247.8 2.9 263 12.4
2011-04-04 14:26:44 51°26.56 3°8.476 274.9 3.6 296 12.4
2011-04-04 14:27:44 51°26.599 3°8.393 295.5 4.3 320 12.6
2011-04-04 14:28:44 51°26.677 3°8.363 350.6 5.5 5 12.4
2011-04-04 14:29:44 51°26.761 3°8.424 43.9 5.7 43 13.5
2011-04-04 14:30:44 51°26.804 3°8.529 80.3 3.9 66 13.9
2011-04-04 14:31:44 51°26.825 3°8.614 93.6 3.6 72 14.4
2011-04-04 14:32:44 51°26.797 3°8.701 171.4 3.8 161 13.9
2011-04-04 14:33:44 51°26.685 3°8.663 201.1 10.3 201 12.9
2011-04-04 14:34:44 51°26.543 3°8.481 226.1 11.3 227 12.6
2011-04-04 14:35:44 51°26.411 3°8.262 225.1 11.4 226 12.3
2011-04-04 14:36:44 51°26.281 3°8.041 225.2 11.3 226 12.1
2011-04-04 14:37:44 51°26.149 3°7.825 224.5 11.4 225 11.9
2011-04-04 14:38:44 51°26.018 3°7.613 223.9 11.2 225 11.4
2011-04-04 14:39:44 51°25.887 3°7.399 224.6 11.2 225 11.7
2011-04-04 14:40:44 51°25.754 3°7.191 225.2 11.2 226 12.2
2011-04-04 14:41:44 51°25.62 3°6.981 224 11.2 224 12.5
2011-04-04 14:42:44 51°25.483 3°6.778 219.5 11.2 219 12.7
2011-04-04 14:43:44 51°25.337 3°6.591 220.8 11.2 219 13
2011-04-04 14:44:44 51°25.192 3°6.399 219.3 11.3 218 13.4
2011-04-04 14:45:44 51°25.047 3°6.21 221 11.3 220 13.7
2011-04-04 14:46:44 51°24.9 3°6.018 220 11.4 218 14.3
2011-04-04 14:47:44 51°24.751 3°5.829 220.6 11.5 219 14.7
2011-04-04 14:48:44 51°24.603 3°5.633 220.6 11.6 219 15.2
2011-04-04 14:49:44 51°24.453 3°5.44 219.2 11.7 219 15.8
2011-04-04 14:50:44 51°24.301 3°5.244 219.3 11.9 217 18.7
2011-04-04 14:51:44 51°24.144 3°5.05 219.1 11.9 217 21.9
2011-04-04 14:52:44 51°23.989 3°4.859 220.7 11.6 219 18.1
2011-04-04 14:53:44 51°23.841 3°4.667 219.2 11.4 217 15.8
2011-04-04 14:54:44 51°23.693 3°4.48 219.9 11.3 219 15.1
2011-04-04 14:55:44 51°23.546 3°4.289 221.2 11.5 219 15.2
2011-04-04 14:56:44 51°23.397 3°4.1 221.3 11.4 218 13.6
2011-04-04 14:57:44 51°23.249 3°3.906 220.7 11.4 220 14.8
2011-04-04 14:58:44 51°23.12 3°3.681 230.2 11.5 230 14.5
2011-04-04 14:59:44 51°22.991 3°3.456 226.8 11.5 226 14.2
2011-04-04 15:00:44 51°22.857 3°3.235 225.5 11.6 224 12.9
2011-04-04 15:01:44 51°22.723 3°3.021 227.1 11.3 227 13
2011-04-04 15:02:44 51°22.59 3°2.805 226.5 11.4 226 13.8
2011-04-04 15:03:44 51°22.457 3°2.586 226.8 11.3 226 13.4
2011-04-04 15:04:44 51°22.323 3°2.373 225.8 11.4 225 13.6
2011-04-04 15:05:44 51°22.189 3°2.156 226 11.5 226 13.2
2011-04-04 15:06:44 51°22.054 3°1.94 226.7 11.5 225 13.5
2011-04-04 15:07:44 51°21.919 3°1.723 226.3 11.4 226 13.7
2011-04-04 15:08:44 51°21.789 3°1.506 226.1 11.3 226 13.5
2011-04-04 15:09:44 51°21.665 3°1.274 229.5 11.5 229 13.6
2011-04-04 15:10:44 51°21.543 3°1.038 230.4 11.6 231 13.5
2011-04-04 15:11:44 51°21.422 3°0.803 230.4 11.4 230 13.2
2011-04-04 15:12:44 51°21.298 3°0.572 229.8 11.4 230 13.3
2011-04-04 15:13:44 51°21.176 3°0.339 230.3 11.4 231 13.2
2011-04-04 15:14:44 51°21.054 3°0.107 229.6 11.4 230 13.2
2011-04-04 15:15:44 51°20.933 2°59.874 230.5 11.5 231 13.2
2011-04-04 15:16:44 51°20.81 2°59.635 229.9 11.5 230 13.1
2011-04-04 15:17:44 51°20.688 2°59.397 230.2 11.6 230 13.3
2011-04-04 15:18:44 51°20.563 2°59.161 230.5 11.5 230 13
2011-04-04 15:19:44 51°20.442 2°58.924 229.6 11.6 230 13.2
2011-04-04 15:20:44 51°20.318 2°58.683 229.8 11.8 230 13.2
2011-04-04 15:21:44 51°20.195 2°58.442 231.1 11.6 231 13
2011-04-04 15:22:44 51°20.071 2°58.203 230.6 11.6 231 13
2011-04-04 15:23:44 51°19.946 2°57.963 230.4 11.8 230 12.8
2011-04-04 15:24:44 51°19.822 2°57.722 230.2 11.8 230 12.8
2011-04-04 15:25:44 51°19.696 2°57.483 230 11.8 230 12.7
2011-04-04 15:26:44 51°19.574 2°57.244 230.3 11.6 231 12.7
2011-04-04 15:27:44 51°19.451 2°57.01 230 11.5 229 12.3
2011-04-04 15:28:44 51°19.329 2°56.772 230.3 11.7 231 12.6
2011-04-04 15:29:44 51°19.206 2°56.53 230.4 11.8 232 12.5
2011-04-04 15:30:44 51°19.084 2°56.289 229.3 11.8 230 12.5
2011-04-04 15:31:44 51°18.95 2°56.067 223.1 11.6 224 12.4
2011-04-04 15:32:44 51°18.811 2°55.85 224.3 11.7 224 12.1
2011-04-04 15:33:44 51°18.673 2°55.631 224.5 11.8 224 12.1
2011-04-04 15:34:44 51°18.534 2°55.411 224.6 11.8 225 11.9
2011-04-04 15:35:44 51°18.393 2°55.191 224.2 11.9 225 11.7
2011-04-04 15:36:44 51°18.254 2°54.967 224.1 11.9 225 11.3
2011-04-04 15:37:44 51°18.114 2°54.745 225 11.9 226 11.3
2011-04-04 15:38:44 51°17.972 2°54.529 220.9 11.7 221 11.1
2011-04-04 15:39:44 51°17.821 2°54.331 219.9 11.8 219 11.1
2011-04-04 15:40:44 51°17.668 2°54.134 219.6 11.8 219 10.6
2011-04-04 15:41:44 51°17.518 2°53.938 218.6 11.7 218 10.4
2011-04-04 15:42:44 51°17.359 2°53.756 213.8 11.8 213 10.1
2011-04-04 15:43:44 51°17.187 2°53.61 206.1 11.7 204 9.9
2011-04-04 15:44:44 51°16.995 2°53.574 177.2 11.9 173 9.9
2011-04-04 15:45:44 51°16.796 2°53.571 189 12 186 12.9
2011-04-04 15:46:44 51°16.597 2°53.547 185.3 12.2 183 13.1
2011-04-04 15:47:44 51°16.393 2°53.54 184.9 12.3 180 13.4
2011-04-04 15:48:44 51°16.19 2°53.528 185.7 12 184 12.9
2011-04-04 15:49:44 51°15.989 2°53.52 180.1 12.2 178 12.8
2011-04-04 15:50:44 51°15.785 2°53.541 168.6 12.5 166 13.7
2011-04-04 15:51:44 51°15.612 2°53.733 143.8 12.8 141 13.3
2011-04-04 15:52:44 51°15.44 2°53.939 148.1 13 145 14
2011-04-04 15:53:44 51°15.261 2°54.131 147.2 12.9 145 13.4
2011-04-04 15:54:44 51°15.089 2°54.33 141.4 12.9 138 13
2011-04-04 15:55:44 51°14.927 2°54.551 142.8 12.6 136 12.5
2011-04-04 15:56:44 51°14.763 2°54.759 144.8 12.6 146 13.6
2011-04-04 15:57:44 51°14.591 2°54.952 146.9 12.6 144 13.7
2011-04-04 15:58:44 51°14.423 2°55.141 146.2 12.1 146 12
2011-04-04 15:59:44 51°14.259 2°55.307 149.3 11 149 11.9
2011-04-04 16:00:44 51°14.122 2°55.419 155.6 8.6 155 11.9
2011-04-04 16:01:44 51°14.011 2°55.5 156.1 6.8 155 12
2011-04-04 16:02:44 51°13.909 2°55.573 155.6 6.6 155 12.2
2011-04-04 16:03:44 51°13.814 2°55.646 152.6 6.1 151 12.2
2011-04-04 16:04:44 51°13.742 2°55.737 133.3 5 133 11.8
2011-04-04 16:05:44 51°13.694 2°55.838 125.7 4.7 124 11.3
2011-04-04 16:06:44 51°13.669 2°55.929 107.8 2.4 108 9.7
2011-04-04 16:07:44 51°13.664 2°55.95 109 0.8 110 9.1